Time;durP1;ratioP1;P1;durP2;ratioP2;P2;SDS_P1;SDS_P2;PMS_P1;PMS_P2;Temp;Humidity;BMP_temperature;BMP_pressure;BME280_temperature;BME280_humidity;BME280_pressure;Samples;Min_cycle;Max_cycle;Signal;HPM_P1;HPM_P2
2022/07/10 00:04:24;;;;;;;10.33;3.33;;;;;13.00;102310.00;;;;10461360;28;20201;-78
2022/07/10 00:09:27;;;;;;;6.83;2.77;;;;;13.00;102298.00;;;;10460651;28;20204;-77
2022/07/10 00:14:29;;;;;;;4.03;2.37;;;;;13.00;102305.00;;;;10444427;28;20270;-78
2022/07/10 00:19:31;;;;;;;6.53;2.60;;;;;12.90;102305.00;;;;10477795;28;20189;-78
2022/07/10 00:24:33;;;;;;;3.40;2.47;;;;;12.70;102301.00;;;;10427854;28;20190;-78
2022/07/10 00:29:35;;;;;;;7.07;2.40;;;;;12.70;102291.00;;;;10461287;28;20736;-78
2022/07/10 00:34:38;;;;;;;5.93;2.77;;;;;12.70;102298.00;;;;10444358;28;20213;-78
2022/07/10 00:39:40;;;;;;;8.00;2.80;;;;;12.60;102299.00;;;;10386539;28;20693;-78
2022/07/10 00:44:43;;;;;;;5.77;3.30;;;;;12.50;102296.00;;;;10435772;28;20191;-77
2022/07/10 00:49:46;;;;;;;4.87;2.60;;;;;12.50;102292.00;;;;10420305;28;20197;-77
2022/07/10 00:54:52;;;;;;;5.40;2.87;;;;;12.50;102285.00;;;;10459044;28;20216;-76
2022/07/10 00:59:54;;;;;;;4.60;2.73;;;;;12.40;102290.00;;;;10466260;28;20222;-77
2022/07/10 01:04:57;;;;;;;3.33;2.67;;;;;12.30;102281.00;;;;10468410;28;20197;-77
2022/07/10 01:10:00;;;;;;;4.33;2.80;;;;;12.20;102281.00;;;;10478692;28;20202;-77
2022/07/10 01:15:02;;;;;;;7.00;3.33;;;;;12.10;102277.00;;;;10459755;28;20214;-76
2022/07/10 01:20:06;;;;;;;5.87;3.00;;;;;12.00;102258.00;;;;10426692;28;20199;-77
2022/07/10 01:25:10;;;;;;;7.07;3.20;;;;;12.00;102260.00;;;;10438563;28;20235;-77
2022/07/10 01:30:13;;;;;;;9.27;3.53;;;;;12.00;102262.00;;;;10501964;28;20243;-77
2022/07/10 01:35:15;;;;;;;6.17;3.10;;;;;12.00;102266.00;;;;10483707;28;20210;-77
2022/07/10 01:40:17;;;;;;;6.83;4.17;;;;;12.00;102258.00;;;;10467348;28;20193;-77
2022/07/10 01:45:19;;;;;;;9.67;4.13;;;;;11.90;102254.00;;;;10467199;28;20268;-77
2022/07/10 01:50:21;;;;;;;4.80;3.47;;;;;11.90;102270.00;;;;10450097;28;20200;-76
2022/07/10 01:55:23;;;;;;;7.67;3.97;;;;;11.80;102254.00;;;;10439022;28;20572;-77
2022/07/10 02:00:25;;;;;;;6.47;3.80;;;;;11.90;102251.00;;;;10458283;28;20213;-77
2022/07/10 02:05:27;;;;;;;5.53;3.53;;;;;11.90;102247.00;;;;10447046;28;20247;-77
2022/07/10 02:10:29;;;;;;;11.80;3.73;;;;;11.80;102253.00;;;;10454902;28;20580;-77
2022/07/10 02:15:31;;;;;;;6.90;3.20;;;;;11.70;102254.00;;;;10440941;28;20202;-77
2022/07/10 02:20:34;;;;;;;8.33;3.20;;;;;11.70;102258.00;;;;10408298;28;20231;-77
2022/07/10 02:25:36;;;;;;;5.47;3.03;;;;;11.60;102252.00;;;;10457230;28;20265;-77
2022/07/10 02:30:38;;;;;;;6.17;2.77;;;;;11.60;102246.00;;;;10440531;28;20202;-77
2022/07/10 02:35:40;;;;;;;6.90;3.50;;;;;11.60;102238.00;;;;10440221;28;20285;-77
2022/07/10 02:40:42;;;;;;;7.67;3.30;;;;;11.50;102242.00;;;;10423424;28;20198;-76
2022/07/10 02:45:44;;;;;;;3.43;2.50;;;;;11.50;102242.00;;;;10423600;28;20194;-76
2022/07/10 02:50:48;;;;;;;5.47;3.23;;;;;11.40;102241.00;;;;10439772;28;20199;-77
2022/07/10 02:55:50;;;;;;;7.50;3.30;;;;;11.40;102230.00;;;;10454333;28;20237;-77
2022/07/10 03:00:52;;;;;;;5.77;3.40;;;;;11.40;102243.00;;;;10446211;28;20209;-76
2022/07/10 03:05:54;;;;;;;9.73;3.37;;;;;11.30;102240.00;;;;10470420;28;20722;-77
2022/07/10 03:10:56;;;;;;;5.23;3.50;;;;;11.20;102236.00;;;;10447168;28;20616;-76
2022/07/10 03:15:58;;;;;;;7.53;3.47;;;;;11.20;102227.00;;;;10463285;28;20245;-77
2022/07/10 03:21:00;;;;;;;6.33;3.37;;;;;11.10;102227.00;;;;10479524;28;20224;-77
2022/07/10 03:26:02;;;;;;;8.27;3.70;;;;;11.10;102221.00;;;;10462649;28;20197;-77
2022/07/10 03:31:04;;;;;;;6.73;3.33;;;;;11.10;102227.00;;;;10479064;28;20217;-76
2022/07/10 03:36:07;;;;;;;6.00;2.97;;;;;11.10;102227.00;;;;10461886;28;20221;-76
2022/07/10 03:41:09;;;;;;;5.53;3.37;;;;;11.10;102222.00;;;;10462669;28;20186;-76
2022/07/10 03:46:11;;;;;;;8.87;3.77;;;;;11.10;102225.00;;;;10478870;28;20193;-76
2022/07/10 03:51:13;;;;;;;7.40;3.90;;;;;11.10;102218.00;;;;10462601;28;20217;-76
2022/07/10 03:57:53;;;;;;;7.80;3.37;;;;;11.10;102225.00;;;;10430964;28;20302;-77
2022/07/10 04:01:36;;;;;;;8.43;3.00;;;;;11.20;102230.00;;;;10453279;28;20689;-77
2022/07/10 04:06:39;;;;;;;7.57;3.47;;;;;11.30;102233.00;;;;10437176;28;20183;-77
2022/07/10 04:11:40;;;;;;;6.17;3.27;;;;;11.30;102234.00;;;;10440785;28;20193;-76
2022/07/10 04:16:43;;;;;;;6.67;3.63;;;;;11.40;102226.00;;;;10461679;28;20206;-76
2022/07/10 04:21:45;;;;;;;6.73;3.40;;;;;11.70;102247.00;;;;10461535;28;20521;-76
2022/07/10 04:26:47;;;;;;;6.73;3.27;;;;;12.10;102250.00;;;;10478041;28;20178;-76
2022/07/10 04:31:49;;;;;;;7.87;3.83;;;;;12.30;102246.00;;;;10436492;28;20206;-76
2022/07/10 04:36:51;;;;;;;8.87;4.70;;;;;12.40;102244.00;;;;10449996;28;20241;-76
2022/07/10 04:41:53;;;;;;;5.57;3.63;;;;;12.30;102246.00;;;;10486233;28;20189;-76
2022/07/10 04:46:54;;;;;;;9.13;3.87;;;;;12.30;102247.00;;;;10468829;28;20274;-77
2022/07/10 04:51:56;;;;;;;5.23;3.57;;;;;12.30;102243.00;;;;10485672;28;20272;-76
2022/07/10 04:57:00;;;;;;;9.40;3.77;;;;;12.40;102252.00;;;;10502253;28;20190;-77
2022/07/10 05:02:02;;;;;;;5.80;4.40;;;;;12.40;102247.00;;;;10485378;28;20283;-76
2022/07/10 05:07:04;;;;;;;6.87;4.27;;;;;12.50;102251.00;;;;10468591;28;20261;-77
2022/07/10 05:12:06;;;;;;;6.67;3.90;;;;;12.50;102250.00;;;;10485530;28;20730;-76
2022/07/10 05:17:08;;;;;;;5.33;4.07;;;;;12.60;102253.00;;;;10484240;28;20259;-76
2022/07/10 05:22:10;;;;;;;9.43;4.77;;;;;12.60;102261.00;;;;10467698;28;20197;-76
2022/07/10 05:27:12;;;;;;;4.60;3.97;;;;;12.70;102255.00;;;;10467232;28;20186;-76
2022/07/10 05:32:14;;;;;;;5.93;4.13;;;;;12.80;102261.00;;;;10500722;28;20732;-77
2022/07/10 05:37:17;;;;;;;9.07;3.80;;;;;13.00;102249.00;;;;10467280;28;20198;-77
2022/07/10 05:42:19;;;;;;;9.30;4.37;;;;;13.20;102253.00;;;;10466915;28;20625;-77
2022/07/10 05:47:21;;;;;;;8.07;4.23;;;;;13.60;102255.00;;;;10465653;28;20192;-76
2022/07/10 05:52:23;;;;;;;5.50;4.00;;;;;14.20;102265.00;;;;10466518;28;20255;-77
2022/07/10 05:57:25;;;;;;;9.20;4.60;;;;;14.80;102261.00;;;;10482578;28;20576;-77
2022/07/10 06:02:27;;;;;;;6.17;4.10;;;;;15.20;102263.00;;;;10449298;28;20228;-76
2022/07/10 06:07:29;;;;;;;9.50;4.10;;;;;15.70;102252.00;;;;10481817;28;20178;-77
2022/07/10 06:12:32;;;;;;;6.80;3.20;;;;;16.00;102249.00;;;;10465886;28;20190;-76
2022/07/10 06:17:33;;;;;;;8.17;3.50;;;;;16.40;102236.00;;;;10498710;28;20217;-77
2022/07/10 06:22:36;;;;;;;6.30;3.27;;;;;16.60;102242.00;;;;10466313;28;20204;-77
2022/07/10 06:27:38;;;;;;;4.57;3.40;;;;;16.90;102242.00;;;;10499651;28;20189;-77
2022/07/10 06:32:40;;;;;;;8.10;3.07;;;;;17.10;102242.00;;;;10448718;28;20252;-77
2022/07/10 06:37:42;;;;;;;5.87;2.90;;;;;17.30;102249.00;;;;10440877;28;20190;-77
2022/07/10 06:42:44;;;;;;;4.68;2.35;;;;;17.50;102245.00;;;;10456717;28;20186;-77
2022/07/10 06:47:56;;;;;;;5.73;2.50;;;;;17.70;102266.00;;;;10439939;28;20178;-77
2022/07/10 06:52:59;;;;;;;5.18;2.38;;;;;17.90;102257.00;;;;10448929;28;20189;-77
2022/07/10 06:58:02;;;;;;;6.20;2.42;;;;;18.10;102269.00;;;;10463674;28;20627;-77
2022/07/10 07:03:03;;;;;;;7.35;2.33;;;;;18.20;102265.00;;;;10444034;28;20194;-77
2022/07/10 07:08:06;;;;;;;7.75;2.25;;;;;18.60;102274.00;;;;10406622;28;20200;-77
2022/07/10 07:13:09;;;;;;;8.73;3.00;;;;;18.80;102267.00;;;;10422439;28;20204;-77
2022/07/10 07:18:12;;;;;;;6.35;2.67;;;;;19.30;102261.00;;;;10421867;28;20190;-77
2022/07/10 07:23:15;;;;;;;7.32;2.67;;;;;19.90;102259.00;;;;10455996;28;20210;-77
2022/07/10 07:28:21;;;;;;;3.75;2.00;;;;;20.50;102262.00;;;;10454660;28;20229;-77
2022/07/10 07:33:22;;;;;;;4.75;1.92;;;;;21.00;102250.00;;;;10471489;28;20279;-77
2022/07/10 07:38:24;;;;;;;5.05;2.10;;;;;21.30;102245.00;;;;10462802;28;20247;-77
2022/07/10 07:43:26;;;;;;;4.75;1.80;;;;;21.80;102244.00;;;;10463453;28;20227;-78
2022/07/10 07:48:28;;;;;;;4.82;2.40;;;;;22.40;102238.00;;;;10462568;28;20246;-78
2022/07/10 07:53:30;;;;;;;7.53;2.30;;;;;22.70;102242.00;;;;10461686;28;20209;-77
2022/07/10 07:58:32;;;;;;;4.50;1.67;;;;;23.60;102248.00;;;;10478930;28;20229;-78
2022/07/10 08:03:34;;;;;;;5.70;2.03;;;;;23.60;102244.00;;;;10472510;28;20255;-78
2022/07/10 08:08:56;;;;;;;4.65;1.70;;;;;24.00;102242.00;;;;10395192;28;20747;-77
2022/07/10 08:13:58;;;;;;;5.40;2.00;;;;;24.00;102255.00;;;;10485055;28;20208;-78
2022/07/10 08:19:00;;;;;;;3.30;1.63;;;;;24.10;102250.00;;;;10470099;28;20181;-78
2022/07/10 08:24:02;;;;;;;5.28;2.42;;;;;25.70;102242.00;;;;10470116;28;20185;-77
2022/07/10 08:29:04;;;;;;;3.53;1.70;;;;;27.20;102238.00;;;;10486083;28;20202;-77
2022/07/10 08:34:06;;;;;;;3.25;2.00;;;;;26.80;102240.00;;;;10475541;28;20243;-78
2022/07/10 08:39:08;;;;;;;5.85;2.08;;;;;26.70;102236.00;;;;10486254;28;20174;-78
2022/07/10 08:44:09;;;;;;;4.93;2.10;;;;;25.70;102245.00;;;;10453210;28;20193;-78
2022/07/10 08:49:17;;;;;;;4.75;2.00;;;;;24.60;102230.00;;;;10503095;28;20659;-78
2022/07/10 08:54:20;;;;;;;2.60;1.83;;;;;24.10;102237.00;;;;10432720;28;20673;-77
2022/07/10 08:59:24;;;;;;;5.05;2.05;;;;;25.10;102234.00;;;;10427854;28;20214;-77
2022/07/10 09:04:32;;;;;;;3.92;1.70;;;;;25.60;102228.00;;;;10442703;28;20200;-77
2022/07/10 09:09:52;;;;;;;3.47;1.90;;;;;25.30;102216.00;;;;10468213;28;20227;-78
2022/07/10 09:15:15;;;;;;;6.65;2.20;;;;;25.40;102219.00;;;;10467836;28;20205;-78
2022/07/10 09:20:29;;;;;;;4.75;1.90;;;;;25.30;102209.00;;;;10500404;28;20220;-78
2022/07/10 09:25:34;;;;;;;5.38;2.00;;;;;24.90;102211.00;;;;10501795;28;20201;-78
2022/07/10 09:30:38;;;;;;;4.50;2.20;;;;;24.20;102212.00;;;;10462104;28;20206;-78
2022/07/10 09:36:05;;;;;;;6.20;2.10;;;;;23.70;102209.00;;;;10483517;28;20688;-78
2022/07/10 09:41:25;;;;;;;5.20;2.60;;;;;24.90;102191.00;;;;10484039;28;20223;-77
2022/07/10 09:46:36;;;;;;;2.72;1.67;;;;;26.80;102189.00;;;;10466832;28;20185;-78
2022/07/10 09:51:45;;;;;;;5.60;2.03;;;;;28.60;102187.00;;;;10482669;28;20251;-78
2022/07/10 09:56:51;;;;;;;4.78;2.15;;;;;29.90;102173.00;;;;10459186;28;20665;-76
2022/07/10 10:01:53;;;;;;;4.13;2.05;;;;;28.50;102184.00;;;;10452943;28;20220;-78
2022/07/10 10:07:00;;;;;;;4.80;1.85;;;;;27.10;102175.00;;;;10443694;28;20198;-78
2022/07/10 10:12:07;;;;;;;3.15;1.98;;;;;27.60;102181.00;;;;10454411;28;20194;-77
2022/07/10 10:17:11;;;;;;;3.13;1.90;;;;;26.50;102189.00;;;;10448392;28;20205;-77
2022/07/10 10:22:15;;;;;;;5.60;2.40;;;;;26.60;102198.00;;;;10465365;28;20189;-78
2022/07/10 10:27:19;;;;;;;4.05;2.10;;;;;26.20;102190.00;;;;10464930;28;20186;-77
2022/07/10 10:32:21;;;;;;;5.18;2.10;;;;;25.80;102189.00;;;;10467453;28;20558;-77
2022/07/10 10:37:36;;;;;;;5.80;2.13;;;;;27.20;102173.00;;;;10440513;28;20301;-77
2022/07/10 10:42:46;;;;;;;5.18;2.20;;;;;27.30;102181.00;;;;10440078;28;20551;-77
2022/07/10 10:48:12;;;;;;;4.88;2.42;;;;;26.30;102173.00;;;;10422722;28;20178;-77
2022/07/10 10:53:33;;;;;;;6.13;2.35;;;;;26.90;102156.00;;;;10439227;28;20272;-77
2022/07/10 10:58:38;;;;;;;4.07;1.80;;;;;28.40;102157.00;;;;10463168;28;20579;-77
2022/07/10 11:04:03;;;;;;;6.35;2.25;;;;;27.60;102170.00;;;;10438885;28;20194;-77
2022/07/10 11:09:27;;;;;;;5.70;2.40;;;;;26.60;102161.00;;;;10452707;28;20659;-77
2022/07/10 11:14:30;;;;;;;4.32;3.88;;;;;27.10;102155.00;;;;10447748;28;20255;-77
2022/07/10 11:19:33;;;;;;;4.18;2.40;;;;;28.30;102142.00;;;;10426806;28;20205;-77
2022/07/10 11:24:51;;;;;;;3.85;1.98;;;;;29.10;102129.00;;;;10479430;28;20224;-77
2022/07/10 11:29:59;;;;;;;4.35;2.20;;;;;29.30;102125.00;;;;10442768;28;20274;-77
2022/07/10 11:35:07;;;;;;;4.15;2.22;;;;;29.50;102129.00;;;;10461903;28;20216;-77
2022/07/10 11:40:11;;;;;;;5.72;2.65;;;;;28.90;102131.00;;;;10473753;28;20721;-77
2022/07/10 11:45:30;;;;;;;3.10;2.15;;;;;28.80;102113.00;;;;10476349;28;20186;-77
2022/07/10 11:50:37;;;;;;;5.43;2.10;;;;;29.70;102116.00;;;;10465706;28;20201;-77
2022/07/10 11:55:42;;;;;;;4.18;1.90;;;;;29.30;102112.00;;;;10436597;28;20689;-76
2022/07/10 12:01:01;;;;;;;2.65;1.60;;;;;29.00;102117.00;;;;10420454;28;20232;-77
2022/07/10 12:06:07;;;;;;;3.30;1.60;;;;;29.50;102103.00;;;;10467937;28;20181;-77
2022/07/10 12:11:14;;;;;;;4.65;1.77;;;;;29.50;102117.00;;;;10477732;28;20213;-77
2022/07/10 12:16:16;;;;;;;4.25;1.70;;;;;30.00;102108.00;;;;10463913;28;20206;-77
2022/07/10 12:21:19;;;;;;;2.80;1.70;;;;;30.70;102107.00;;;;10461748;28;20193;-77
2022/07/10 12:26:21;;;;;;;3.75;1.75;;;;;31.60;102107.00;;;;10495281;28;20268;-78
2022/07/10 12:31:26;;;;;;;3.10;1.70;;;;;30.30;102111.00;;;;10465474;28;20209;-77
2022/07/10 12:36:45;;;;;;;4.07;2.15;;;;;30.60;102102.00;;;;10437400;28;20199;-78
2022/07/10 12:41:59;;;;;;;3.58;2.08;;;;;29.10;102100.00;;;;10420581;28;20736;-77
2022/07/10 12:47:09;;;;;;;3.63;2.10;;;;;29.10;102111.00;;;;10436544;28;20261;-77
2022/07/10 12:52:26;;;;;;;3.33;1.90;;;;;30.90;102085.00;;;;10419821;28;20200;-78
2022/07/10 12:57:33;;;;;;;3.42;1.63;;;;;29.30;102092.00;;;;10443620;28;20669;-77
2022/07/10 13:02:35;;;;;;;3.13;1.40;;;;;28.90;102087.00;;;;10411314;28;20321;-78
2022/07/10 13:07:37;;;;;;;3.65;1.52;;;;;29.20;102083.00;;;;10460571;28;20712;-77
2022/07/10 13:12:39;;;;;;;3.92;1.73;;;;;29.60;102076.00;;;;10444017;28;20277;-78
2022/07/10 13:17:45;;;;;;;3.97;1.42;;;;;30.70;102070.00;;;;10443636;28;20202;-77
2022/07/10 13:22:47;;;;;;;2.20;1.40;;;;;31.70;102073.00;;;;10460501;28;20205;-78
2022/07/10 13:27:51;;;;;;;3.15;1.60;;;;;30.50;102078.00;;;;10501169;28;20644;-77
2022/07/10 13:32:52;;;;;;;2.63;1.58;;;;;32.50;102072.00;;;;10483934;28;20235;-78
2022/07/10 13:37:54;;;;;;;6.28;1.70;;;;;32.50;102073.00;;;;10467783;28;20259;-77
2022/07/10 13:42:57;;;;;;;2.67;1.23;;;;;32.10;102070.00;;;;10483717;28;20216;-78
2022/07/10 13:47:59;;;;;;;3.20;1.50;;;;;30.90;102068.00;;;;10466949;28;20182;-78
2022/07/10 13:53:01;;;;;;;3.85;1.60;;;;;30.70;102068.00;;;;10467223;28;20177;-77
2022/07/10 13:58:03;;;;;;;2.05;1.50;;;;;31.20;102064.00;;;;10466693;28;20271;-77
2022/07/10 14:03:07;;;;;;;2.58;1.48;;;;;29.20;102068.00;;;;10463641;28;20645;-78
2022/07/10 14:08:09;;;;;;;6.13;1.70;;;;;28.70;102068.00;;;;10469111;28;20189;-77
2022/07/10 14:13:11;;;;;;;6.30;1.98;;;;;28.90;102056.00;;;;10483169;28;20204;-77
2022/07/10 14:18:34;;;;;;;1.92;1.30;;;;;28.90;102065.00;;;;10499239;28;20205;-78
2022/07/10 14:23:38;;;;;;;2.65;1.50;;;;;28.40;102058.00;;;;10499653;28;20232;-78
2022/07/10 14:28:40;;;;;;;2.05;1.35;;;;;28.00;102059.00;;;;10500018;28;20555;-77
2022/07/10 14:33:44;;;;;;;4.57;1.77;;;;;27.20;102057.00;;;;10465765;28;20208;-78
2022/07/10 14:38:46;;;;;;;3.15;1.35;;;;;31.30;102059.00;;;;10464563;28;20209;-78
2022/07/10 14:43:48;;;;;;;1.58;1.23;;;;;30.70;102063.00;;;;10464796;28;20186;-77
2022/07/10 14:48:51;;;;;;;4.45;1.30;;;;;29.90;102040.00;;;;10481525;28;20193;-77
2022/07/10 14:53:54;;;;;;;2.85;1.40;;;;;28.80;102043.00;;;;10447863;28;20243;-77
2022/07/10 14:58:56;;;;;;;4.20;1.30;;;;;31.50;102039.00;;;;10480646;28;20714;-78
2022/07/10 15:04:15;;;;;;;2.20;1.30;;;;;29.50;102040.00;;;;10439720;28;20204;-78
2022/07/10 15:09:17;;;;;;;4.38;1.55;;;;;33.80;102037.00;;;;10423366;28;20194;-78
2022/07/10 15:14:20;;;;;;;3.10;1.63;;;;;36.50;102029.00;;;;10422689;28;20186;-78
2022/07/10 15:19:21;;;;;;;3.67;1.55;;;;;33.80;102041.00;;;;10437864;28;20224;-78
2022/07/10 15:24:23;;;;;;;2.45;1.40;;;;;36.10;102019.00;;;;10405293;28;20236;-77
2022/07/10 15:29:25;;;;;;;2.50;1.50;;;;;32.50;102033.00;;;;10405540;28;20206;-78
2022/07/10 15:34:27;;;;;;;2.85;1.25;;;;;32.60;102019.00;;;;10468891;28;20197;-78
2022/07/10 15:39:29;;;;;;;4.30;1.30;;;;;32.00;102021.00;;;;10462866;28;20193;-78
2022/07/10 15:44:31;;;;;;;1.42;1.13;;;;;30.50;102011.00;;;;10478786;28;20190;-78
2022/07/10 15:49:33;;;;;;;2.53;1.00;;;;;29.10;102007.00;;;;10479105;28;20193;-78
2022/07/10 15:54:35;;;;;;;3.00;1.20;;;;;28.00;102008.00;;;;10422459;28;20221;-77
2022/07/10 15:59:38;;;;;;;1.65;0.90;;;;;27.30;102004.00;;;;10437681;28;20210;-77
2022/07/10 16:04:41;;;;;;;1.33;1.00;;;;;27.10;102007.00;;;;10488351;28;20199;-77
2022/07/10 16:09:42;;;;;;;2.85;1.27;;;;;26.90;101993.00;;;;10429599;28;20205;-78
2022/07/10 16:14:44;;;;;;;4.32;1.25;;;;;26.30;101999.00;;;;10496889;28;20201;-77
2022/07/10 16:19:46;;;;;;;3.05;1.00;;;;;26.10;101983.00;;;;10462319;28;20189;-77
2022/07/10 16:30:10;;;;;;;4.80;1.27;;;;;25.20;101994.00;;;;10500744;28;20646;-77
2022/07/10 16:35:11;;;;;;;2.00;1.10;;;;;25.10;101995.00;;;;10470697;28;20477;-77
2022/07/10 16:40:13;;;;;;;6.68;1.10;;;;;25.40;101995.00;;;;10487003;28;20228;-77
2022/07/10 16:45:16;;;;;;;3.28;1.23;;;;;24.70;101994.00;;;;10470696;28;20255;-77
2022/07/10 16:50:18;;;;;;;1.92;1.20;;;;;24.50;101986.00;;;;10469833;28;20243;-77
2022/07/10 16:55:20;;;;;;;2.55;0.93;;;;;24.40;101976.00;;;;10486258;28;20198;-77
2022/07/10 17:00:23;;;;;;;2.63;1.30;;;;;24.10;101979.00;;;;10485535;28;20622;-78
2022/07/10 17:05:26;;;;;;;3.55;1.92;;;;;24.00;101979.00;;;;10485610;28;20272;-77
2022/07/10 17:10:28;;;;;;;3.72;0.90;;;;;24.00;101975.00;;;;10485549;28;20208;-77
2022/07/10 17:15:30;;;;;;;1.35;1.02;;;;;23.70;101962.00;;;;10451755;28;20198;-77
2022/07/10 17:20:33;;;;;;;2.10;1.27;;;;;23.60;101965.00;;;;10468285;28;20196;-77
2022/07/10 17:25:35;;;;;;;2.33;1.40;;;;;23.60;101967.00;;;;10451309;28;20189;-76
2022/07/10 17:30:38;;;;;;;1.52;1.30;;;;;23.40;101962.00;;;;10451133;28;20205;-78
2022/07/10 17:35:40;;;;;;;2.00;0.95;;;;;23.30;101949.00;;;;10443146;28;20650;-78
2022/07/10 17:40:42;;;;;;;2.17;1.35;;;;;23.20;101951.00;;;;10441472;28;20265;-78
2022/07/10 17:45:44;;;;;;;3.90;1.33;;;;;23.10;101954.00;;;;10409350;28;20209;-78
2022/07/10 17:50:46;;;;;;;2.28;1.48;;;;;23.10;101955.00;;;;10459033;28;20198;-78
2022/07/10 17:55:50;;;;;;;5.00;1.65;;;;;23.10;101950.00;;;;10491516;28;20292;-78
2022/07/10 18:00:52;;;;;;;1.35;1.00;;;;;23.00;101959.00;;;;10450267;28;20216;-78
2022/07/10 18:05:54;;;;;;;1.73;1.13;;;;;22.90;101943.00;;;;10466600;28;20316;-76
2022/07/10 18:10:56;;;;;;;3.53;1.23;;;;;22.80;101956.00;;;;10465389;28;20244;-76
2022/07/10 18:16:09;;;;;;;2.58;1.25;;;;;22.70;101962.00;;;;10465293;28;20806;-76
2022/07/10 18:21:13;;;;;;;3.35;1.10;;;;;22.60;101953.00;;;;10448891;28;20228;-77
2022/07/10 18:26:16;;;;;;;3.10;1.20;;;;;22.50;101954.00;;;;10448617;28;20308;-76
2022/07/10 18:31:18;;;;;;;1.45;1.10;;;;;22.40;101945.00;;;;10459818;28;20234;-76
2022/07/10 18:36:20;;;;;;;1.77;1.30;;;;;22.30;101947.00;;;;10407505;28;20237;-76
2022/07/10 18:41:23;;;;;;;2.88;1.10;;;;;22.00;101942.00;;;;10440489;28;20182;-76
2022/07/10 18:46:27;;;;;;;3.08;1.13;;;;;21.80;101942.00;;;;10440292;28;20182;-77
2022/07/10 18:51:29;;;;;;;3.63;1.25;;;;;21.80;101944.00;;;;10422993;28;20273;-76
2022/07/10 18:56:31;;;;;;;2.78;1.20;;;;;21.80;101944.00;;;;10462289;28;20201;-77
2022/07/10 19:01:33;;;;;;;2.47;1.23;;;;;21.70;101940.00;;;;10441162;28;20222;-77
2022/07/10 19:06:35;;;;;;;2.40;1.13;;;;;21.50;101943.00;;;;10452969;28;20232;-77
2022/07/10 19:11:37;;;;;;;3.72;1.40;;;;;21.40;101946.00;;;;10463861;28;20201;-77
2022/07/10 19:16:40;;;;;;;2.63;1.23;;;;;21.30;101948.00;;;;10463202;28;20209;-77
2022/07/10 19:21:42;;;;;;;2.75;1.20;;;;;21.30;101948.00;;;;10497689;28;20181;-77
2022/07/10 19:26:44;;;;;;;2.00;1.25;;;;;21.20;101951.00;;;;10479049;28;20181;-76
2022/07/10 19:31:46;;;;;;;3.85;1.13;;;;;21.10;101945.00;;;;10454629;28;20542;-77
2022/07/10 19:36:48;;;;;;;2.78;1.13;;;;;20.90;101951.00;;;;10438938;28;20206;-77
2022/07/10 19:41:50;;;;;;;1.13;1.02;;;;;20.60;101954.00;;;;10418812;28;20211;-78
2022/07/10 19:46:53;;;;;;;2.35;1.48;;;;;20.30;101946.00;;;;10480110;28;20189;-77
2022/07/10 19:51:55;;;;;;;3.67;2.22;;;;;20.10;101958.00;;;;10447527;28;20190;-77
2022/07/10 19:56:57;;;;;;;2.33;1.80;;;;;19.90;101965.00;;;;10447126;28;20221;-77
2022/07/10 20:01:59;;;;;;;4.30;1.40;;;;;19.70;101954.00;;;;10453112;28;20230;-77
2022/07/10 20:07:02;;;;;;;3.20;1.52;;;;;19.60;101957.00;;;;10426209;28;20225;-77
2022/07/10 20:12:05;;;;;;;2.60;1.58;;;;;19.40;101957.00;;;;10447711;28;20277;-76
2022/07/10 20:17:08;;;;;;;1.90;1.50;;;;;19.20;101951.00;;;;10441930;28;20272;-76
2022/07/10 20:22:10;;;;;;;5.22;2.53;;;;;18.90;101945.00;;;;10448218;28;20201;-76
2022/07/10 20:27:12;;;;;;;3.90;2.25;;;;;18.70;101944.00;;;;10406912;28;20212;-77
2022/07/10 20:32:15;;;;;;;2.15;1.95;;;;;18.50;101948.00;;;;10434469;28;20254;-77
2022/07/10 20:42:38;;;;;;;5.15;1.90;;;;;18.40;101947.00;;;;10467280;28;20182;-77
2022/07/10 20:47:41;;;;;;;4.03;2.05;;;;;18.40;101954.00;;;;10445280;28;20231;-77
2022/07/10 20:52:44;;;;;;;3.53;1.67;;;;;18.50;101964.00;;;;10463702;28;20202;-77
2022/07/10 20:57:46;;;;;;;3.40;1.92;;;;;18.30;101959.00;;;;10455044;28;20270;-77
2022/07/10 21:02:48;;;;;;;3.10;1.83;;;;;18.20;101956.00;;;;10421249;28;20572;-76
2022/07/10 21:07:50;;;;;;;2.55;1.50;;;;;18.20;101968.00;;;;10472704;28;20239;-76
2022/07/10 21:12:52;;;;;;;1.60;1.50;;;;;18.30;101971.00;;;;10465047;28;20193;-77
2022/07/10 21:17:56;;;;;;;2.30;1.50;;;;;18.40;101967.00;;;;10450846;28;20205;-77
2022/07/10 21:22:58;;;;;;;2.38;1.50;;;;;18.40;101968.00;;;;10467573;28;20212;-78
2022/07/10 21:28:00;;;;;;;2.05;1.48;;;;;18.40;101977.00;;;;10451712;28;20576;-78
2022/07/10 21:33:03;;;;;;;3.95;1.88;;;;;18.30;101973.00;;;;10466182;28;20205;-77
2022/07/10 21:38:05;;;;;;;3.53;2.10;;;;;18.20;101974.00;;;;10483688;28;20209;-77
2022/07/10 21:43:07;;;;;;;2.53;1.75;;;;;18.20;101971.00;;;;10483919;28;20250;-77
2022/07/10 21:48:10;;;;;;;4.18;1.83;;;;;18.00;101978.00;;;;10434409;28;20198;-77
2022/07/10 21:53:12;;;;;;;4.07;2.00;;;;;17.80;101973.00;;;;10449417;28;20305;-77
2022/07/10 21:58:14;;;;;;;2.20;1.80;;;;;17.70;101972.00;;;;10430777;28;20762;-77
2022/07/10 22:03:16;;;;;;;3.67;1.73;;;;;17.50;101967.00;;;;10435199;28;20190;-76
2022/07/10 22:08:19;;;;;;;3.57;2.00;;;;;17.40;101973.00;;;;10434355;28;20227;-77
2022/07/10 22:13:21;;;;;;;4.35;1.73;;;;;17.30;101968.00;;;;10483070;28;20530;-77
2022/07/10 22:18:23;;;;;;;3.23;2.23;;;;;17.20;101975.00;;;;10465801;28;20206;-77
2022/07/10 22:23:25;;;;;;;2.47;1.95;;;;;17.10;101979.00;;;;10446764;28;20706;-77
2022/07/10 22:28:27;;;;;;;5.17;2.63;;;;;17.00;101968.00;;;;10444331;28;20225;-78
2022/07/10 22:33:29;;;;;;;3.73;2.17;;;;;16.90;101958.00;;;;10438048;28;20548;-78
2022/07/10 22:38:31;;;;;;;5.20;2.43;;;;;16.80;101956.00;;;;10425491;28;20209;-78
2022/07/10 22:43:33;;;;;;;4.03;2.70;;;;;16.70;101966.00;;;;10425971;28;20189;-78
2022/07/10 22:48:35;;;;;;;4.10;2.63;;;;;16.60;101974.00;;;;10463727;28;20205;-78
2022/07/10 22:53:38;;;;;;;6.00;3.13;;;;;16.40;101964.00;;;;10464853;28;20564;-78
2022/07/10 22:58:40;;;;;;;3.70;2.70;;;;;16.30;101969.00;;;;10411252;28;20225;-78
2022/07/10 23:03:42;;;;;;;6.43;3.13;;;;;16.20;101963.00;;;;10432810;28;20229;-78
2022/07/10 23:08:45;;;;;;;8.20;3.70;;;;;16.10;101966.00;;;;10442753;28;20200;-78
2022/07/10 23:13:48;;;;;;;6.20;3.90;;;;;15.90;101971.00;;;;10454539;28;20202;-78
2022/07/10 23:18:50;;;;;;;6.40;3.30;;;;;15.90;101971.00;;;;10436605;28;20812;-78
2022/07/10 23:23:52;;;;;;;4.73;3.13;;;;;15.80;101962.00;;;;10438198;28;20191;-78
2022/07/10 23:28:54;;;;;;;3.50;3.00;;;;;15.70;101954.00;;;;10444138;28;20656;-77
2022/07/10 23:33:56;;;;;;;6.00;3.03;;;;;15.60;101952.00;;;;10473838;28;20263;-78
2022/07/10 23:38:58;;;;;;;5.13;3.27;;;;;15.50;101948.00;;;;10444642;28;20255;-78
2022/07/10 23:44:00;;;;;;;6.37;4.07;;;;;15.50;101954.00;;;;10479473;28;20231;-78
2022/07/10 23:54:22;;;;;;;9.03;3.80;;;;;15.50;101948.00;;;;10462362;28;20196;-78
2022/07/10 23:59:24;;;;;;;7.87;3.83;;;;;15.40;101939.00;;;;10462084;28;20267;-78
